Time;durP1;ratioP1;P1;durP2;ratioP2;P2;SDS_P1;SDS_P2;PMS_P1;PMS_P2;Temp;Humidity;BMP_temperature;BMP_pressure;BME280_temperature;BME280_humidity;BME280_pressure;Samples;Min_cycle;Max_cycle;Signal;HPM_P1;HPM_P2
2021/11/30 00:00:48;;;;;;;0.40;0.30;;;;;;;3.78;100.00;100171.72;5056116;28;20442;-71
2021/11/30 00:03:15;;;;;;;0.40;0.27;;;;;;;3.83;100.00;100175.50;5056069;28;20860;-71
2021/11/30 00:05:41;;;;;;;0.40;0.30;;;;;;;3.79;100.00;100165.28;5056008;28;20434;-71
2021/11/30 00:08:08;;;;;;;0.40;0.23;;;;;;;3.85;100.00;100170.66;5055938;28;20849;-71
2021/11/30 00:10:44;;;;;;;0.40;0.20;;;;;;;3.89;100.00;100171.72;5055646;28;20442;-71
2021/11/30 00:13:11;;;;;;;0.40;0.30;;;;;;;3.89;100.00;100174.41;5055903;28;20453;-71
2021/11/30 00:15:38;;;;;;;0.40;0.30;;;;;;;3.87;100.00;100161.28;5055762;28;20490;-71
2021/11/30 00:18:08;;;;;;;0.40;0.30;;;;;;;3.87;100.00;100155.13;5055388;28;20520;-72
2021/11/30 00:20:35;;;;;;;0.50;0.30;;;;;;;3.90;100.00;100155.41;5055406;28;20457;-71
2021/11/30 00:23:01;;;;;;;0.40;0.30;;;;;;;3.86;100.00;100162.38;5055690;28;20454;-72
2021/11/30 00:25:28;;;;;;;0.40;0.30;;;;;;;3.88;100.00;100154.06;5055609;28;20442;-71
2021/11/30 00:27:55;;;;;;;0.40;0.30;;;;;;;3.87;100.00;100155.13;5055584;28;20466;-71
2021/11/30 00:30:22;;;;;;;0.40;0.20;;;;;;;3.91;100.00;100150.84;5055244;28;20446;-71
2021/11/30 00:32:49;;;;;;;0.40;0.30;;;;;;;3.88;100.00;100146.03;5055498;28;20468;-71
2021/11/30 00:35:17;;;;;;;0.40;0.30;;;;;;;3.87;100.00;100139.06;5055115;28;20935;-71
2021/11/30 00:37:44;;;;;;;0.40;0.30;;;;;;;3.85;100.00;100138.50;5055120;28;20474;-72
2021/11/30 00:40:11;;;;;;;0.40;0.30;;;;;;;3.84;100.00;100143.06;5055005;28;20935;-71
2021/11/30 00:42:38;;;;;;;1.03;1.03;;;;;;;3.84;100.00;100143.06;5055071;28;20512;-72
2021/11/30 00:45:08;;;;;;;0.40;0.30;;;;;;;3.89;100.00;100127.00;5055034;28;20442;-71
2021/11/30 00:47:44;;;;;;;0.40;0.20;;;;;;;3.91;100.00;100118.72;5055154;28;20470;-71
2021/11/30 00:50:11;;;;;;;0.40;0.20;;;;;;;3.88;100.00;100119.22;5055159;28;20488;-71
2021/11/30 00:52:39;;;;;;;0.40;0.30;;;;;;;3.84;100.00;100118.97;5054843;28;20434;-71
2021/11/30 00:55:07;;;;;;;0.40;0.23;;;;;;;3.85;100.00;100119.75;5054720;28;20495;-71
2021/11/30 00:57:38;;;;;;;0.40;0.20;;;;;;;3.86;100.00;100121.38;5054875;28;20489;-71
2021/11/30 01:00:06;;;;;;;3.60;3.40;;;;;;;3.84;100.00;100112.81;5054966;28;20437;-71
2021/11/30 01:02:33;;;;;;;0.40;0.20;;;;;;;3.86;100.00;100116.03;5053597;28;20488;-71
2021/11/30 01:05:00;;;;;;;0.40;0.30;;;;;;;3.85;100.00;100114.41;5054913;28;20442;-71
2021/11/30 01:07:27;;;;;;;0.40;0.30;;;;;;;3.83;100.00;100111.19;5054435;28;20462;-71
2021/11/30 01:09:55;;;;;;;0.40;0.30;;;;;;;3.83;100.00;100109.31;5054466;28;20830;-71
2021/11/30 01:12:21;;;;;;;0.40;0.20;;;;;;;3.85;100.00;100107.19;5054407;28;21008;-71
2021/11/30 01:14:48;;;;;;;0.40;0.30;;;;;;;3.85;100.00;100107.19;5054670;28;20508;-71
2021/11/30 01:17:15;;;;;;;0.40;0.30;;;;;;;3.82;100.00;100106.91;5053846;28;20485;-71
2021/11/30 01:19:42;;;;;;;0.40;0.30;;;;;;;3.82;100.00;100096.22;5054329;28;20442;-71
2021/11/30 01:22:09;;;;;;;0.40;0.27;;;;;;;3.82;100.00;100106.91;5054282;28;20446;-70
2021/11/30 01:24:35;;;;;;;0.40;0.30;;;;;;;3.76;100.00;100088.19;5054198;28;20445;-70
2021/11/30 01:27:04;;;;;;;0.40;0.30;;;;;;;3.74;100.00;100076.91;5054334;28;20517;-70
2021/11/30 01:29:31;;;;;;;0.40;0.30;;;;;;;3.77;100.00;100071.03;5054400;28;20438;-70
2021/11/30 01:31:58;;;;;;;0.40;0.30;;;;;;;3.75;100.00;100067.78;5054085;28;20997;-71
2021/11/30 01:34:24;;;;;;;0.40;0.20;;;;;;;3.75;100.00;100069.69;5054320;28;20446;-71
2021/11/30 01:36:51;;;;;;;0.40;0.30;;;;;;;3.73;100.00;100071.84;5053951;28;20478;-71
2021/11/30 01:39:18;;;;;;;0.40;0.30;;;;;;;3.74;100.00;100070.75;5053688;28;20553;-70
2021/11/30 01:41:45;;;;;;;0.40;0.30;;;;;;;3.73;100.00;100069.94;5054191;28;20449;-70
2021/11/30 01:44:26;;;;;;;0.40;0.30;;;;;;;3.74;100.00;100065.41;5053838;28;20442;-70
2021/11/30 01:47:05;;;;;;;0.40;0.30;;;;;;;3.70;100.00;100062.44;5054208;28;20426;-70
2021/11/30 01:49:34;;;;;;;0.40;0.30;;;;;;;3.69;100.00;100068.09;5054101;28;20523;-70
2021/11/30 01:52:01;;;;;;;0.40;0.30;;;;;;;3.65;100.00;100061.66;5053899;28;20992;-70
2021/11/30 01:54:28;;;;;;;1.23;1.13;;;;;;;3.66;100.00;100057.91;5053956;28;20826;-70
2021/11/30 01:56:55;;;;;;;0.40;0.30;;;;;;;3.63;100.00;100053.91;5053806;28;20591;-70
2021/11/30 01:59:24;;;;;;;0.40;0.30;;;;;;;3.60;100.00;100057.09;5053814;28;20580;-70
2021/11/30 02:01:51;;;;;;;0.40;0.20;;;;;;;3.59;100.00;100052.03;5053503;28;20818;-70
2021/11/30 02:04:18;;;;;;;0.40;0.30;;;;;;;3.51;100.00;100056.81;5052788;28;20521;-70
2021/11/30 02:06:45;;;;;;;0.40;0.30;;;;;;;3.50;100.00;100049.06;5053444;28;20438;-70
2021/11/30 02:09:12;;;;;;;0.40;0.30;;;;;;;3.48;100.00;100043.16;5053577;28;20462;-71
2021/11/30 02:11:39;;;;;;;0.40;0.30;;;;;;;3.49;100.00;100048.25;5053635;28;20500;-71
2021/11/30 02:14:06;;;;;;;1.07;1.07;;;;;;;3.51;100.00;100034.59;5053584;28;20547;-70
2021/11/30 02:16:35;;;;;;;0.40;0.20;;;;;;;3.56;100.00;100036.47;5053214;28;20990;-70
2021/11/30 02:19:04;;;;;;;1.03;1.03;;;;;;;3.50;100.00;100035.69;5053456;28;20462;-70
2021/11/30 02:21:36;;;;;;;0.40;0.20;;;;;;;3.47;100.00;100020.16;5053175;28;20442;-70
2021/11/30 02:24:03;;;;;;;0.40;0.20;;;;;;;3.50;100.00;100028.44;5053486;28;20441;-71
2021/11/30 02:26:32;;;;;;;0.50;0.47;;;;;;;3.52;100.00;100010.22;5053384;28;20446;-70
2021/11/30 02:28:59;;;;;;;0.40;0.30;;;;;;;3.46;100.00;100010.53;5052988;28;20470;-71
2021/11/30 02:31:30;;;;;;;0.40;0.30;;;;;;;3.49;100.00;100005.41;5053325;28;21026;-70
2021/11/30 02:33:57;;;;;;;0.40;0.30;;;;;;;3.51;100.00;99997.13;5053014;28;20449;-71
2021/11/30 02:36:29;;;;;;;0.40;0.30;;;;;;;3.51;100.00;99997.13;5053241;28;20513;-71
2021/11/30 02:39:00;;;;;;;0.40;0.30;;;;;;;3.47;100.00;99998.72;5052818;28;20476;-71
2021/11/30 02:41:28;;;;;;;0.60;0.60;;;;;;;3.46;99.96;99989.91;5052933;28;20481;-71
2021/11/30 02:43:55;;;;;;;0.40;0.30;;;;;;;3.44;99.96;99985.88;5053180;28;20438;-70
2021/11/30 02:46:34;;;;;;;0.40;0.30;;;;;;;3.50;100.00;99982.16;5053095;28;20438;-71
2021/11/30 02:49:02;;;;;;;0.47;0.30;;;;;;;3.49;100.00;99967.94;5052788;28;20987;-71
2021/11/30 02:51:29;;;;;;;0.40;0.30;;;;;;;3.46;100.00;99955.09;5053104;28;20446;-71
2021/11/30 02:53:59;;;;;;;0.40;0.30;;;;;;;3.46;100.00;99946.28;5053085;28;20442;-71
2021/11/30 02:56:26;;;;;;;0.40;0.30;;;;;;;3.44;100.00;99940.38;5052700;28;20979;-71
2021/11/30 02:58:53;;;;;;;0.40;0.30;;;;;;;3.42;100.00;99939.84;5052656;28;21005;-71
2021/11/30 03:01:20;;;;;;;0.40;0.27;;;;;;;3.43;100.00;99941.44;5052938;28;20810;-71
2021/11/30 03:03:47;;;;;;;0.40;0.30;;;;;;;3.37;99.80;99926.47;5053021;28;20453;-70
2021/11/30 03:06:14;;;;;;;0.40;0.30;;;;;;;3.34;100.00;99917.09;5052939;28;20442;-70
2021/11/30 03:08:41;;;;;;;0.40;0.20;;;;;;;3.32;100.00;99897.84;5052831;28;20520;-70
2021/11/30 03:11:09;;;;;;;0.40;0.30;;;;;;;3.31;100.00;99903.44;5052595;28;20927;-70
2021/11/30 03:13:37;;;;;;;0.40;0.30;;;;;;;3.27;100.00;99893.28;5052553;28;20446;-70
2021/11/30 03:16:04;;;;;;;0.40;0.20;;;;;;;3.27;100.00;99895.94;5054274;28;20492;-69
2021/11/30 03:18:32;;;;;;;0.40;0.30;;;;;;;3.35;100.00;99888.44;5056739;28;20539;-70
2021/11/30 03:20:59;;;;;;;0.40;0.27;;;;;;;3.38;100.00;99882.56;5056600;28;21000;-70
2021/11/30 03:23:25;;;;;;;0.40;0.30;;;;;;;3.39;100.00;99889.53;5056521;28;20450;-70
2021/11/30 03:25:52;;;;;;;0.50;0.30;;;;;;;3.36;100.00;99874.78;5056793;28;20742;-70
2021/11/30 03:28:20;;;;;;;0.40;0.30;;;;;;;3.37;100.00;99871.06;5056315;28;21048;-70
2021/11/30 03:30:56;;;;;;;0.40;0.30;;;;;;;3.39;100.00;99865.44;5056429;28;20446;-70
2021/11/30 03:36:07;;;;;;;0.40;0.30;;;;;;;3.43;99.63;99851.22;5056346;28;20405;-70
2021/11/30 03:38:34;;;;;;;0.40;0.20;;;;;;;3.46;99.51;99841.88;5056060;28;20990;-70
2021/11/30 03:41:01;;;;;;;0.40;0.30;;;;;;;3.43;100.00;99834.38;5056170;28;20942;-70
2021/11/30 03:43:29;;;;;;;0.40;0.20;;;;;;;3.43;99.00;99826.34;5056415;28;20446;-70
2021/11/30 03:45:55;;;;;;;0.40;0.30;;;;;;;3.44;98.78;99822.59;5056093;28;20503;-70
2021/11/30 03:48:22;;;;;;;0.40;0.30;;;;;;;3.43;98.89;99812.97;5055903;28;20466;-70
2021/11/30 03:50:49;;;;;;;0.40;0.30;;;;;;;3.44;98.02;99809.19;5056425;28;20495;-70
2021/11/30 03:53:16;;;;;;;0.40;0.30;;;;;;;3.42;98.22;99796.09;5056116;28;20446;-71
2021/11/30 03:55:42;;;;;;;0.40;0.20;;;;;;;3.41;97.43;99782.97;5056232;28;20496;-71
2021/11/30 03:58:09;;;;;;;0.40;0.20;;;;;;;3.43;97.36;99783.50;5056028;28;20486;-72
2021/11/30 04:00:37;;;;;;;0.40;0.30;;;;;;;3.42;98.14;99773.88;5056127;28;20495;-72
2021/11/30 04:03:05;;;;;;;0.40;0.30;;;;;;;3.44;98.21;99777.88;5056056;28;20869;-70
2021/11/30 04:05:32;;;;;;;0.40;0.30;;;;;;;3.43;97.10;99765.56;5056056;28;20863;-71
2021/11/30 04:07:59;;;;;;;0.40;0.20;;;;;;;3.43;95.91;99759.41;5055622;28;20524;-71
2021/11/30 04:10:26;;;;;;;0.40;0.20;;;;;;;3.37;95.56;99760.53;5055890;28;20445;-71
2021/11/30 04:12:53;;;;;;;0.40;0.30;;;;;;;3.36;96.80;99748.19;5055925;28;20499;-71
2021/11/30 04:15:20;;;;;;;0.40;0.30;;;;;;;3.35;95.87;99733.22;5055808;28;20492;-71
2021/11/30 04:17:48;;;;;;;0.40;0.20;;;;;;;3.35;97.26;99731.34;5055662;28;20909;-71
2021/11/30 04:20:15;;;;;;;0.40;0.30;;;;;;;3.34;97.16;99731.63;5055739;28;20438;-71
2021/11/30 04:22:43;;;;;;;0.40;0.30;;;;;;;3.31;97.12;99734.84;5055401;28;20426;-72
2021/11/30 04:25:12;;;;;;;0.40;0.20;;;;;;;3.27;97.44;99724.66;5055377;28;20442;-72
2021/11/30 04:27:38;;;;;;;0.40;0.30;;;;;;;3.25;97.99;99716.13;5054549;28;20516;-71
2021/11/30 04:30:07;;;;;;;0.40;0.30;;;;;;;3.28;98.65;99720.16;5055241;28;20449;-72
2021/11/30 04:32:34;;;;;;;0.40;0.20;;;;;;;3.20;98.24;99713.47;5055224;28;20871;-71
2021/11/30 04:35:02;;;;;;;0.40;0.30;;;;;;;3.09;98.71;99706.56;5055474;28;20504;-71
2021/11/30 04:39:55;;;;;;;0.40;0.20;;;;;;;2.88;99.96;99702.34;5086994;22;20979;-81
2021/11/30 04:42:26;;;;;;;3.70;2.00;;;;;;;2.79;100.00;99686.06;5080726;28;20487;-81
2021/11/30 04:44:58;;;;;;;0.50;0.40;;;;;;;2.65;100.00;99679.66;5082541;28;20430;-81
2021/11/30 04:47:27;;;;;;;0.40;0.30;;;;;;;2.52;100.00;99673.84;5086500;28;20436;-81
2021/11/30 04:49:59;;;;;;;0.40;0.30;;;;;;;2.52;100.00;99654.28;5083102;28;20434;-81
2021/11/30 04:52:27;;;;;;;0.40;0.30;;;;;;;2.49;100.00;99650.31;5084174;28;20461;-81
2021/11/30 04:54:54;;;;;;;0.40;0.30;;;;;;;2.44;100.00;99653.00;5082932;28;20442;-81
2021/11/30 04:57:21;;;;;;;0.40;0.30;;;;;;;2.42;100.00;99643.63;5084124;28;21063;-81
2021/11/30 04:59:48;;;;;;;0.40;0.20;;;;;;;2.43;100.00;99629.19;5084166;28;20437;-81
2021/11/30 05:02:15;;;;;;;0.40;0.30;;;;;;;2.42;100.00;99627.59;5078808;28;20449;-81
2021/11/30 05:04:43;;;;;;;0.40;0.20;;;;;;;2.46;100.00;99626.78;5077057;28;20438;-81
2021/11/30 05:07:10;;;;;;;0.40;0.30;;;;;;;2.44;100.00;99617.47;5079621;28;20465;-82
2021/11/30 05:09:38;;;;;;;0.50;0.30;;;;;;;2.47;100.00;99611.56;5084190;28;20875;-81
2021/11/30 05:12:05;;;;;;;0.40;0.30;;;;;;;2.48;100.00;99605.16;5083180;28;20465;-82
2021/11/30 05:14:32;;;;;;;0.40;0.30;;;;;;;2.52;100.00;99595.50;5084122;28;20437;-81
2021/11/30 05:16:59;;;;;;;0.40;0.30;;;;;;;2.50;100.00;99590.44;5084050;28;20480;-82
2021/11/30 05:19:26;;;;;;;0.40;0.30;;;;;;;2.57;100.00;99587.50;5084763;28;20449;-82
2021/11/30 05:21:53;;;;;;;0.40;0.20;;;;;;;2.59;100.00;99582.66;5083699;28;20450;-82
2021/11/30 05:24:20;;;;;;;0.40;0.30;;;;;;;2.59;100.00;99568.50;5083233;28;20978;-82
2021/11/30 05:26:53;;;;;;;0.40;0.30;;;;;;;2.67;100.00;99575.94;5080219;28;20445;-81
2021/11/30 05:29:19;;;;;;;0.40;0.40;;;;;;;2.73;100.00;99556.94;5077704;28;20793;-82
2021/11/30 05:31:46;;;;;;;0.40;0.30;;;;;;;2.77;100.00;99549.16;5077839;28;20480;-82
2021/11/30 05:34:14;;;;;;;0.40;0.30;;;;;;;2.83;100.00;99545.38;5076659;28;20461;-81
2021/11/30 05:36:41;;;;;;;0.40;0.30;;;;;;;2.85;100.00;99545.91;5081028;28;20962;-82
2021/11/30 05:39:07;;;;;;;0.40;0.30;;;;;;;2.85;100.00;99531.75;5082320;28;20460;-83
2021/11/30 05:41:34;;;;;;;0.40;0.30;;;;;;;2.86;100.00;99519.97;5084463;28;20460;-82
2021/11/30 05:44:02;;;;;;;1.20;1.13;;;;;;;2.85;100.00;99521.84;5083800;28;20978;-81
2021/11/30 05:46:31;;;;;;;0.40;0.30;;;;;;;2.84;100.00;99514.13;5083742;28;20467;-82
2021/11/30 05:48:58;;;;;;;0.40;0.27;;;;;;;2.83;100.00;99507.16;5076050;28;20457;-84
2021/11/30 05:51:24;;;;;;;0.40;0.30;;;;;;;2.83;100.00;99505.28;5075959;28;20445;-83
2021/11/30 05:53:51;;;;;;;0.60;0.60;;;;;;;2.81;100.00;99498.63;5079785;28;20473;-83
2021/11/30 05:56:18;;;;;;;0.40;0.30;;;;;;;2.76;100.00;99489.53;5080014;28;20487;-82
2021/11/30 05:58:46;;;;;;;0.40;0.30;;;;;;;2.80;100.00;99481.78;5080982;28;20538;-82
2021/11/30 06:01:21;;;;;;;0.40;0.30;;;;;;;2.76;100.00;99470.03;5082796;28;21009;-81
2021/11/30 06:03:58;;;;;;;0.40;0.30;;;;;;;2.70;100.00;99450.56;5078957;28;20480;-83
2021/11/30 06:06:27;;;;;;;0.40;0.30;;;;;;;2.67;100.00;99440.41;5079295;28;20460;-82
2021/11/30 06:08:54;;;;;;;0.40;0.30;;;;;;;2.64;100.00;99430.25;5078290;28;20498;-83
2021/11/30 06:11:21;;;;;;;0.40;0.20;;;;;;;2.67;100.00;99415.56;5077719;28;20449;-84
2021/11/30 06:13:48;;;;;;;0.40;0.30;;;;;;;2.63;100.00;99403.81;5078611;28;21044;-83
2021/11/30 06:16:18;;;;;;;0.40;0.30;;;;;;;2.58;100.00;99393.97;5078778;28;20791;-82
2021/11/30 06:18:45;;;;;;;0.40;0.40;;;;;;;2.55;100.00;99397.19;5078782;28;20487;-83
2021/11/30 06:21:12;;;;;;;0.40;0.20;;;;;;;2.57;100.00;99392.38;5078538;28;20923;-83
2021/11/30 06:23:40;;;;;;;0.50;0.50;;;;;;;2.58;100.00;99385.94;5077659;28;20462;-82
2021/11/30 06:26:08;;;;;;;0.40;0.30;;;;;;;2.58;100.00;99380.59;5077251;28;20536;-82
2021/11/30 06:28:35;;;;;;;0.40;0.30;;;;;;;2.52;100.00;99381.69;5077913;28;20445;-83
2021/11/30 06:31:02;;;;;;;0.40;0.30;;;;;;;2.52;100.00;99371.00;5078318;28;20445;-82
2021/11/30 06:33:30;;;;;;;0.40;0.30;;;;;;;2.48;100.00;99368.09;5079939;28;20462;-84
2021/11/30 06:35:57;;;;;;;0.80;0.77;;;;;;;2.49;100.00;99361.69;5081078;28;21008;-82
2021/11/30 06:38:24;;;;;;;0.40;0.33;;;;;;;2.49;100.00;99359.00;5081064;28;20485;-84
2021/11/30 06:40:52;;;;;;;0.40;0.27;;;;;;;2.47;100.00;99349.66;5082263;28;20453;-82
2021/11/30 06:43:19;;;;;;;0.40;0.30;;;;;;;2.48;100.00;99335.25;5079117;28;20464;-84
2021/11/30 06:45:45;;;;;;;0.40;0.30;;;;;;;2.53;100.00;99340.53;5078713;28;20446;-83
2021/11/30 06:48:12;;;;;;;0.40;0.27;;;;;;;2.54;100.00;99326.09;5077522;28;20452;-83
2021/11/30 06:50:40;;;;;;;0.40;0.30;;;;;;;2.51;100.00;99310.63;5077156;28;20930;-83
2021/11/30 06:53:07;;;;;;;0.40;0.30;;;;;;;2.50;100.00;99306.34;5078658;28;20453;-82
2021/11/30 06:55:34;;;;;;;0.40;0.30;;;;;;;2.50;100.00;99298.34;5077037;28;20450;-82
2021/11/30 06:58:01;;;;;;;0.40;0.30;;;;;;;2.55;100.00;99290.28;5076609;28;20978;-83
2021/11/30 07:00:28;;;;;;;0.40;0.20;;;;;;;2.58;100.00;99286.25;5076608;28;20943;-82
2021/11/30 07:02:55;;;;;;;0.40;0.30;;;;;;;2.60;100.00;99276.88;5075562;28;20469;-81
2021/11/30 07:05:28;;;;;;;0.40;0.30;;;;;;;2.55;100.00;99263.53;5076875;28;20511;-82
2021/11/30 07:08:11;;;;;;;0.40;0.20;;;;;;;2.58;100.00;99256.84;5076068;28;20422;-81
2021/11/30 07:10:41;;;;;;;0.40;0.30;;;;;;;2.57;100.00;99256.06;5075211;28;20942;-82
2021/11/30 07:13:18;;;;;;;0.40;0.30;;;;;;;2.58;100.00;99252.31;5075661;28;20474;-83
2021/11/30 07:15:47;;;;;;;0.40;0.30;;;;;;;2.59;100.00;99240.53;5076356;28;20437;-82
2021/11/30 07:18:15;;;;;;;0.40;0.23;;;;;;;2.58;100.00;99235.47;5075236;28;20493;-83
2021/11/30 07:20:43;;;;;;;0.40;0.30;;;;;;;2.58;100.00;99230.91;5074910;28;20481;-81
2021/11/30 07:23:12;;;;;;;0.40;0.30;;;;;;;2.59;100.00;99227.16;5075546;28;20836;-79
2021/11/30 07:25:39;;;;;;;0.40;0.20;;;;;;;2.58;100.00;99222.91;5075527;28;20935;-79
2021/11/30 07:28:07;;;;;;;0.40;0.30;;;;;;;2.58;100.00;99216.75;5078850;28;20938;-81
2021/11/30 07:30:36;;;;;;;0.40;0.30;;;;;;;2.55;100.00;99209.31;5081180;28;20942;-80
2021/11/30 07:33:03;;;;;;;0.40;0.30;;;;;;;2.57;100.00;99213.31;5080589;28;20872;-81
2021/11/30 07:35:31;;;;;;;0.40;0.30;;;;;;;2.60;100.00;99210.03;5080759;28;20789;-84
2021/11/30 07:37:58;;;;;;;0.40;0.30;;;;;;;2.54;100.00;99197.81;5080198;28;20561;-81
2021/11/30 07:40:26;;;;;;;0.40;0.30;;;;;;;2.55;100.00;99202.06;5081658;28;20899;-80
2021/11/30 07:42:53;;;;;;;0.40;0.30;;;;;;;2.58;100.00;99182.03;5084564;28;20481;-81
2021/11/30 07:45:20;;;;;;;0.40;0.30;;;;;;;2.56;100.00;99189.50;5075116;28;20437;-81
2021/11/30 07:47:47;;;;;;;0.40;0.27;;;;;;;2.48;100.00;99182.91;5075047;28;20433;-81
2021/11/30 07:50:14;;;;;;;0.40;0.30;;;;;;;2.45;100.00;99176.25;5073810;28;20930;-80
2021/11/30 07:52:43;;;;;;;0.40;0.30;;;;;;;2.46;100.00;99174.38;5074026;28;20465;-80
2021/11/30 07:55:12;;;;;;;0.40;0.30;;;;;;;2.52;100.00;99163.38;5074969;28;20543;-80
2021/11/30 07:57:40;;;;;;;0.40;0.30;;;;;;;2.50;100.00;99154.81;5075297;28;20441;-80
2021/11/30 08:00:10;;;;;;;0.40;0.30;;;;;;;2.55;100.00;99156.66;5075144;28;20434;-81
2021/11/30 08:02:37;;;;;;;0.40;0.30;;;;;;;2.58;100.00;99139.25;5075416;28;20460;-80
2021/11/30 08:05:04;;;;;;;0.40;0.30;;;;;;;2.56;100.00;99131.50;5078801;28;20459;-81
2021/11/30 08:07:31;;;;;;;0.40;0.30;;;;;;;2.63;100.00;99131.19;5077544;28;20445;-81
2021/11/30 08:09:58;;;;;;;0.40;0.30;;;;;;;2.64;100.00;99122.06;5078406;28;20449;-80
2021/11/30 08:12:25;;;;;;;0.40;0.20;;;;;;;2.61;100.00;99111.94;5078648;28;21033;-81
2021/11/30 08:14:53;;;;;;;0.40;0.23;;;;;;;2.60;100.00;99119.16;5079182;28;20426;-80
2021/11/30 08:17:20;;;;;;;0.40;0.30;;;;;;;2.59;100.00;99109.56;5079154;28;20448;-81
2021/11/30 08:19:48;;;;;;;0.40;0.30;;;;;;;2.61;100.00;99102.06;5078477;28;20561;-82
2021/11/30 08:22:16;;;;;;;9.03;2.67;;;;;;;2.61;100.00;99101.25;5079482;28;20532;-80
2021/11/30 08:24:44;;;;;;;0.40;0.30;;;;;;;2.62;100.00;99098.31;5080032;28;20856;-80
2021/11/30 08:27:12;;;;;;;1.40;1.40;;;;;;;2.69;100.00;99077.34;5079892;28;20429;-81
2021/11/30 08:29:40;;;;;;;0.40;0.27;;;;;;;2.76;100.00;99077.03;5077958;28;20996;-81
2021/11/30 08:32:09;;;;;;;0.40;0.30;;;;;;;2.77;100.00;99062.56;5080085;28;20446;-82
2021/11/30 08:34:38;;;;;;;0.40;0.20;;;;;;;2.80;100.00;99061.22;5079274;28;20450;-82
2021/11/30 08:37:05;;;;;;;0.40;0.30;;;;;;;2.80;100.00;99055.88;5077742;28;20452;-81
2021/11/30 08:39:33;;;;;;;0.40;0.20;;;;;;;2.82;100.00;99051.81;5078554;28;20492;-80
2021/11/30 08:42:01;;;;;;;0.40;0.20;;;;;;;2.87;100.00;99042.91;5082017;28;20434;-80
2021/11/30 08:44:28;;;;;;;0.40;0.20;;;;;;;2.90;100.00;99035.13;5081837;28;20452;-80
2021/11/30 08:46:55;;;;;;;0.40;0.30;;;;;;;2.89;100.00;99017.50;5078091;28;20445;-80
2021/11/30 08:49:24;;;;;;;0.40;0.30;;;;;;;2.90;100.00;99028.97;5079092;28;20441;-80
2021/11/30 08:51:51;;;;;;;0.40;0.20;;;;;;;2.91;100.00;99019.88;5079830;28;20857;-80
2021/11/30 08:54:19;;;;;;;0.40;0.30;;;;;;;2.95;100.00;99032.38;5080706;28;20465;-82
2021/11/30 08:56:46;;;;;;;0.40;0.30;;;;;;;3.00;100.00;99023.47;5078482;28;20457;-80
2021/11/30 08:59:13;;;;;;;0.40;0.30;;;;;;;3.02;100.00;99021.34;5080974;28;20545;-78
2021/11/30 09:01:40;;;;;;;0.40;0.20;;;;;;;3.03;100.00;99013.00;5076460;28;20808;-79
2021/11/30 09:04:07;;;;;;;0.40;0.30;;;;;;;3.06;100.00;99022.34;5077121;28;20523;-81
2021/11/30 09:06:36;;;;;;;0.40;0.20;;;;;;;3.07;100.00;99015.13;5076745;28;20457;-82
2021/11/30 09:09:04;;;;;;;0.40;0.20;;;;;;;3.03;100.00;99004.19;5078191;28;20481;-84
2021/11/30 09:11:30;;;;;;;0.40;0.30;;;;;;;3.06;100.00;99006.28;5078699;28;20503;-81
2021/11/30 09:13:57;;;;;;;0.50;0.40;;;;;;;3.07;100.00;99010.56;5077011;28;20453;-78
2021/11/30 09:16:24;;;;;;;0.40;0.30;;;;;;;3.09;100.00;99005.69;5076650;28;20437;-79
2021/11/30 09:18:51;;;;;;;0.77;0.70;;;;;;;3.09;100.00;98999.56;5076439;28;20493;-78
2021/11/30 09:21:18;;;;;;;0.40;0.23;;;;;;;3.14;100.00;98997.59;5076293;28;21000;-80
2021/11/30 09:23:47;;;;;;;0.40;0.20;;;;;;;3.19;100.00;98989.50;5077157;28;20483;-79
2021/11/30 09:26:14;;;;;;;0.40;0.23;;;;;;;3.24;100.00;98985.97;5077371;28;20445;-80
2021/11/30 09:28:42;;;;;;;0.40;0.20;;;;;;;3.23;100.00;98974.47;5077267;28;20441;-80
2021/11/30 09:31:09;;;;;;;0.40;0.20;;;;;;;3.27;100.00;98975.44;5077136;28;20441;-80
2021/11/30 09:33:39;;;;;;;0.40;0.30;;;;;;;3.32;100.00;98971.09;5077063;28;20454;-80
2021/11/30 09:36:06;;;;;;;0.40;0.30;;;;;;;3.35;100.00;98974.00;5076910;28;20485;-79
2021/11/30 09:38:33;;;;;;;0.40;0.30;;;;;;;3.39;100.00;98968.84;5076327;28;20481;-79
2021/11/30 09:41:02;;;;;;;0.40;0.20;;;;;;;3.46;100.00;98963.94;5079472;28;20445;-80
2021/11/30 09:43:31;;;;;;;0.40;0.20;;;;;;;3.53;100.00;98967.78;5082383;28;20473;-79
2021/11/30 09:45:59;;;;;;;0.40;0.30;;;;;;;3.58;100.00;98961.56;5078612;28;20445;-80
2021/11/30 09:48:27;;;;;;;0.87;0.87;;;;;;;3.63;100.00;98953.47;5076850;28;20445;-79
2021/11/30 09:50:54;;;;;;;0.40;0.27;;;;;;;3.70;100.00;98953.06;5080367;28;20499;-79
2021/11/30 09:53:21;;;;;;;0.40;0.20;;;;;;;3.75;100.00;98951.06;5079564;28;20519;-80
2021/11/30 09:55:49;;;;;;;0.40;0.30;;;;;;;3.80;100.00;98940.25;5080393;28;20440;-79
2021/11/30 09:58:19;;;;;;;0.40;0.30;;;;;;;3.87;100.00;98933.72;5079522;28;20938;-80
2021/11/30 10:00:48;;;;;;;0.40;0.30;;;;;;;3.91;100.00;98940.09;5080267;28;20803;-80
2021/11/30 10:03:15;;;;;;;0.40;0.20;;;;;;;3.90;100.00;98927.78;5078937;28;20461;-79
2021/11/30 10:05:43;;;;;;;0.40;0.30;;;;;;;3.98;100.00;98933.22;5080329;28;20452;-80
2021/11/30 10:08:28;;;;;;;0.40;0.30;;;;;;;4.08;100.00;98926.88;5081764;28;20459;-80
2021/11/30 10:10:56;;;;;;;0.40;0.20;;;;;;;4.16;100.00;98931.56;5081544;28;20528;-80
2021/11/30 10:13:25;;;;;;;0.40;0.20;;;;;;;4.18;100.00;98925.88;5082782;28;20549;-80
2021/11/30 10:15:59;;;;;;;0.40;0.30;;;;;;;4.18;100.00;98932.03;5082912;28;20942;-80
2021/11/30 10:18:29;;;;;;;0.40;0.30;;;;;;;4.24;100.00;98930.81;5082927;28;20492;-80
2021/11/30 10:21:18;;;;;;;0.40;0.30;;;;;;;4.26;100.00;98925.97;5082702;28;20964;-80
2021/11/30 10:23:46;;;;;;;0.40;0.30;;;;;;;4.35;100.00;98920.69;5084854;28;21016;-80
2021/11/30 10:26:14;;;;;;;1.80;1.70;;;;;;;4.44;100.00;98918.09;5079706;28;20545;-82
2021/11/30 10:28:43;;;;;;;0.40;0.20;;;;;;;4.50;100.00;98911.53;5076109;28;20449;-82
2021/11/30 10:31:11;;;;;;;0.40;0.30;;;;;;;4.54;100.00;98902.56;5076757;28;20969;-80
2021/11/30 10:33:38;;;;;;;0.40;0.30;;;;;;;4.57;100.00;98895.03;5077048;28;20472;-80
2021/11/30 10:36:05;;;;;;;0.40;0.23;;;;;;;4.60;100.00;98903.25;5075584;28;20452;-81
2021/11/30 10:38:35;;;;;;;0.40;0.27;;;;;;;4.66;100.00;98891.31;5074797;28;20560;-81
2021/11/30 10:41:18;;;;;;;0.40;0.20;;;;;;;4.68;100.00;98878.38;5077147;28;20510;-81
2021/11/30 10:43:54;;;;;;;0.40;0.20;;;;;;;4.65;100.00;98873.66;5074209;28;20472;-80
2021/11/30 10:46:23;;;;;;;0.40;0.20;;;;;;;4.73;100.00;98872.13;5074511;28;20899;-82
2021/11/30 10:48:50;;;;;;;0.40;0.30;;;;;;;4.77;100.00;98868.53;5074036;28;20468;-82
2021/11/30 10:51:17;;;;;;;0.40;0.30;;;;;;;4.81;100.00;98861.44;5076461;28;20786;-82
2021/11/30 10:53:46;;;;;;;0.40;0.20;;;;;;;4.90;100.00;98864.19;5074713;28;20477;-82
2021/11/30 10:56:13;;;;;;;0.40;0.20;;;;;;;4.88;100.00;98858.34;5075020;28;20441;-81
2021/11/30 10:58:41;;;;;;;0.40;0.20;;;;;;;4.98;100.00;98860.78;5076197;28;20489;-81
2021/11/30 11:01:13;;;;;;;0.40;0.30;;;;;;;5.04;100.00;98864.13;5076824;28;20855;-81
2021/11/30 11:03:40;;;;;;;0.40;0.30;;;;;;;5.09;100.00;98865.88;5076544;28;20801;-82
2021/11/30 11:08:55;;;;;;;0.40;0.30;;;;;;;5.16;100.00;98877.78;5075617;28;20475;-81
2021/11/30 11:11:24;;;;;;;0.40;0.20;;;;;;;5.19;100.00;98866.44;5074809;28;20472;-81
2021/11/30 11:13:52;;;;;;;0.40;0.23;;;;;;;5.24;100.00;98863.59;5074559;28;20461;-81
2021/11/30 11:16:25;;;;;;;0.93;0.93;;;;;;;5.31;100.00;98868.53;5076621;28;20522;-82
2021/11/30 11:18:54;;;;;;;0.40;0.20;;;;;;;5.37;100.00;98874.56;5075492;28;20469;-80
2021/11/30 11:21:26;;;;;;;0.40;0.30;;;;;;;5.38;100.00;98865.41;5074032;28;21000;-80
2021/11/30 11:24:04;;;;;;;0.40;0.30;;;;;;;5.44;100.00;98861.47;5074113;28;20480;-82
2021/11/30 11:26:34;;;;;;;0.40;0.20;;;;;;;5.44;100.00;98856.91;5074949;28;20421;-81
2021/11/30 11:29:03;;;;;;;0.40;0.30;;;;;;;5.50;100.00;98855.69;5074505;28;20897;-82
2021/11/30 11:31:32;;;;;;;0.40;0.30;;;;;;;5.53;100.00;98844.31;5074261;28;20429;-79
2021/11/30 11:34:01;;;;;;;0.40;0.20;;;;;;;5.55;100.00;98844.00;5073722;28;20473;-78
2021/11/30 11:36:28;;;;;;;0.40;0.23;;;;;;;5.57;100.00;98847.16;5073651;28;20880;-80
2021/11/30 11:38:55;;;;;;;0.40;0.20;;;;;;;5.53;100.00;98844.31;5076183;28;20489;-79
2021/11/30 11:41:23;;;;;;;0.40;0.30;;;;;;;5.53;100.00;98860.44;5077577;28;20796;-79
2021/11/30 11:43:51;;;;;;;0.40;0.30;;;;;;;5.53;100.00;98855.06;5077023;28;20512;-80